Time;durP1;ratioP1;P1;durP2;ratioP2;P2;SDS_P1;SDS_P2;PMS_P1;PMS_P2;Temp;Humidity;BMP_temperature;BMP_pressure;BME280_temperature;BME280_humidity;BME280_pressure;Samples;Min_cycle;Max_cycle;Signal;HPM_P1;HPM_P2
2023/10/22 00:00:48;;;;;;;30.80;13.60;;;;;;;17.48;58.82;99989.43;124295;1099;102025;-75
2023/10/22 00:03:39;;;;;;;33.67;14.63;;;;;;;17.46;59.05;99986.78;124256;1099;104214;-75
2023/10/22 00:06:11;;;;;;;33.40;14.33;;;;;;;17.42;59.20;99988.56;124694;1099;104256;-74
2023/10/22 00:08:42;;;;;;;31.43;14.53;;;;;;;17.41;59.41;99993.86;124723;1099;102545;-75
2023/10/22 00:11:16;;;;;;;29.60;13.30;;;;;;;17.35;59.50;99992.09;124715;1099;102102;-75
2023/10/22 00:13:47;;;;;;;32.43;14.63;;;;;;;17.34;59.15;99989.44;124702;1099;104176;-74
2023/10/22 00:16:18;;;;;;;34.40;13.70;;;;;;;17.33;59.46;99992.98;124738;1099;104165;-75
2023/10/22 00:18:50;;;;;;;30.37;13.23;;;;;;;17.29;59.89;99993.86;124766;1099;104191;-74
2023/10/22 00:21:21;;;;;;;27.50;12.93;;;;;;;17.24;59.44;99994.73;124741;1098;104240;-75
2023/10/22 00:23:52;;;;;;;40.43;16.03;;;;;;;17.18;59.63;99988.55;124708;1099;101963;-74
2023/10/22 00:26:24;;;;;;;34.93;16.53;;;;;;;17.09;59.71;99994.72;124156;1099;102331;-74
2023/10/22 00:28:55;;;;;;;36.77;16.77;;;;;;;17.02;60.16;99992.97;124331;1099;104201;-74
2023/10/22 00:31:26;;;;;;;40.00;16.50;;;;;;;17.01;60.09;99988.53;124749;1099;104331;-75
2023/10/22 00:33:57;;;;;;;38.67;16.07;;;;;;;16.99;59.96;99990.31;125384;1099;101932;-75
2023/10/22 00:36:29;;;;;;;33.67;15.43;;;;;;;16.99;59.97;99982.36;124691;1099;104159;-75
2023/10/22 00:39:01;;;;;;;32.70;15.50;;;;;;;16.99;60.58;99982.36;124681;1099;101964;-74
2023/10/22 00:41:32;;;;;;;39.10;16.53;;;;;;;16.98;60.48;99980.58;124794;1099;101910;-74
2023/10/22 00:44:04;;;;;;;34.60;15.27;;;;;;;16.94;60.52;99976.14;124795;1099;104185;-75
2023/10/22 00:46:36;;;;;;;34.10;14.90;;;;;;;16.93;60.26;99987.66;124914;1099;101871;-75
2023/10/22 00:49:08;;;;;;;37.23;15.00;;;;;;;16.92;60.86;100004.42;124798;1099;104275;-75
2023/10/22 00:51:39;;;;;;;35.00;14.33;;;;;;;16.89;60.55;100003.55;124299;1099;104176;-75
2023/10/22 00:54:14;;;;;;;33.17;14.90;;;;;;;16.87;60.61;100005.28;124778;1098;104201;-75
2023/10/22 00:56:45;;;;;;;33.00;14.53;;;;;;;16.83;60.95;99995.55;124791;1099;104325;-75
2023/10/22 00:59:17;;;;;;;34.07;14.43;;;;;;;16.79;60.88;99996.41;124271;1099;104176;-75
2023/10/22 01:01:48;;;;;;;31.00;14.50;;;;;;;16.73;60.95;100003.47;124746;1099;104169;-75
2023/10/22 01:04:19;;;;;;;32.50;15.13;;;;;;;16.73;61.59;99999.05;124697;1099;101903;-75
2023/10/22 01:06:51;;;;;;;34.70;16.20;;;;;;;16.74;61.40;100007.90;124729;1099;104195;-74
2023/10/22 01:09:22;;;;;;;35.37;15.27;;;;;;;16.70;61.68;100002.59;124616;1099;104288;-75
2023/10/22 01:12:03;;;;;;;38.83;15.70;;;;;;;16.69;61.52;100010.53;124765;1099;104338;-74
2023/10/22 01:14:34;;;;;;;31.17;15.67;;;;;;;16.68;61.65;100009.63;124705;1099;102309;-74
2023/10/22 01:17:06;;;;;;;37.60;15.50;;;;;;;16.67;61.51;100009.63;124707;1099;104322;-74
2023/10/22 01:19:37;;;;;;;35.33;16.00;;;;;;;16.63;61.97;100007.86;124753;1099;104294;-74
2023/10/22 01:22:09;;;;;;;33.53;15.47;;;;;;;16.57;61.87;100010.49;124677;1099;102064;-74
2023/10/22 01:24:40;;;;;;;34.20;16.20;;;;;;;16.52;61.77;100006.05;124741;1099;104163;-74
2023/10/22 01:27:11;;;;;;;34.53;15.30;;;;;;;16.49;62.26;100007.81;124228;1099;104182;-75
2023/10/22 01:29:43;;;;;;;34.60;16.13;;;;;;;16.47;61.98;100005.16;124321;1099;101919;-75
2023/10/22 01:32:14;;;;;;;35.83;15.60;;;;;;;16.45;62.16;99998.95;124739;1099;104408;-74
2023/10/22 01:34:45;;;;;;;34.70;15.00;;;;;;;16.47;61.79;99999.87;124679;1099;110808;-75
2023/10/22 01:37:16;;;;;;;37.50;16.37;;;;;;;16.41;62.43;100010.44;124769;1099;101862;-75
2023/10/22 01:39:48;;;;;;;31.73;15.80;;;;;;;16.30;61.99;100002.44;124728;1099;104297;-75
2023/10/22 01:42:19;;;;;;;39.50;15.83;;;;;;;16.22;62.51;100008.56;124323;1099;101974;-76
2023/10/22 01:44:51;;;;;;;38.67;15.73;;;;;;;16.14;61.96;100009.44;126080;1098;102322;-75
2023/10/22 01:47:22;;;;;;;35.93;16.63;;;;;;;16.16;62.51;100005.02;124407;1099;104198;-75
2023/10/22 01:49:54;;;;;;;35.90;15.40;;;;;;;16.18;62.25;99997.09;125039;1099;102322;-75
2023/10/22 01:52:25;;;;;;;38.20;16.10;;;;;;;16.20;62.57;99997.97;124376;1099;104248;-75
2023/10/22 01:54:57;;;;;;;38.17;16.30;;;;;;;16.22;62.72;100003.27;126158;1098;104242;-75
2023/10/22 01:57:29;;;;;;;33.83;16.20;;;;;;;16.18;62.71;100008.55;124896;1099;104281;-76
2023/10/22 02:00:00;;;;;;;34.53;16.70;;;;;;;16.17;62.23;100012.09;124453;1098;104249;-75
2023/10/22 02:02:32;;;;;;;35.60;16.60;;;;;;;16.16;62.31;100015.61;124934;1099;101862;-75
2023/10/22 02:05:04;;;;;;;35.87;16.37;;;;;;;16.15;63.04;100008.53;124939;1099;102061;-75
2023/10/22 02:07:37;;;;;;;37.23;17.13;;;;;;;16.10;62.67;100004.98;124881;1099;104191;-75
2023/10/22 02:10:10;;;;;;;31.87;15.37;;;;;;;16.08;62.72;100009.41;124990;1099;101779;-76
2023/10/22 02:12:41;;;;;;;36.73;16.62;;;;;;;15.93;62.52;100006.66;124453;1099;104171;-76
2023/10/22 02:15:13;;;;;;;33.17;15.33;;;;;;;15.86;63.14;100010.14;124489;1099;104276;-76
2023/10/22 02:17:44;;;;;;;39.80;16.60;;;;;;;15.84;62.93;100014.55;124993;1098;104230;-76
2023/10/22 02:20:16;;;;;;;35.97;15.93;;;;;;;15.86;63.65;100012.78;125014;1098;102038;-75
2023/10/22 02:22:47;;;;;;;33.37;14.90;;;;;;;15.89;62.83;100024.26;124997;1099;104275;-76
2023/10/22 02:25:19;;;;;;;35.20;15.40;;;;;;;15.89;63.17;100018.97;124973;1099;102531;-76
2023/10/22 02:27:51;;;;;;;35.50;15.43;;;;;;;15.86;63.11;100018.08;124983;1099;101929;-75
2023/10/22 02:30:22;;;;;;;39.40;16.30;;;;;;;15.73;63.37;100017.08;124927;1099;104169;-75
2023/10/22 02:32:54;;;;;;;37.13;17.00;;;;;;;15.55;62.94;100018.73;125004;1099;104201;-75
2023/10/22 02:35:25;;;;;;;32.97;15.53;;;;;;;15.36;63.70;100017.66;125003;1098;102012;-76
2023/10/22 02:37:57;;;;;;;37.63;16.27;;;;;;;15.32;63.74;100002.67;124925;1099;104205;-75
2023/10/22 02:40:29;;;;;;;41.20;16.70;;;;;;;15.32;64.29;100000.03;124864;1099;101862;-75
2023/10/22 02:43:00;;;;;;;36.90;16.53;;;;;;;15.35;64.20;100002.70;124946;1099;104166;-76
2023/10/22 02:45:32;;;;;;;35.85;16.85;;;;;;;15.27;63.58;100004.41;124883;1099;104380;-75
2023/10/22 02:48:03;;;;;;;36.27;17.07;;;;;;;15.17;64.35;100002.53;124980;1099;102128;-75
2023/10/22 02:50:38;;;;;;;39.97;16.03;;;;;;;15.16;64.87;100006.95;124911;1099;101875;-75
2023/10/22 02:53:09;;;;;;;36.73;15.83;;;;;;;15.21;64.34;100004.34;125052;1099;101823;-76
2023/10/22 02:55:41;;;;;;;42.33;16.27;;;;;;;15.24;64.67;99989.39;124588;1099;104281;-76
2023/10/22 02:58:12;;;;;;;39.27;15.67;;;;;;;15.29;64.77;99997.36;124431;1099;104064;-76
2023/10/22 03:00:44;;;;;;;36.23;16.07;;;;;;;15.30;64.94;99993.83;124471;1099;104205;-76
2023/10/22 03:03:15;;;;;;;37.57;16.13;;;;;;;15.29;64.42;99986.79;124489;1099;104223;-76
2023/10/22 03:05:47;;;;;;;35.70;16.40;;;;;;;15.28;65.02;99991.16;124791;1099;104179;-76
2023/10/22 03:08:18;;;;;;;40.17;16.90;;;;;;;15.29;64.61;99986.79;124947;1099;104245;-76
2023/10/22 03:10:49;;;;;;;35.87;16.33;;;;;;;15.29;65.21;99976.22;124529;1099;104236;-76
2023/10/22 03:13:21;;;;;;;33.97;16.40;;;;;;;15.31;65.42;99979.75;124343;1099;104172;-75
2023/10/22 03:15:53;;;;;;;33.90;15.87;;;;;;;15.30;65.20;99975.31;124317;1099;104182;-75
2023/10/22 03:18:25;;;;;;;36.80;16.80;;;;;;;15.28;65.41;99985.87;124433;1099;101994;-75
2023/10/22 03:20:57;;;;;;;36.50;16.40;;;;;;;15.26;64.52;99989.41;124388;1099;104197;-75
2023/10/22 03:23:28;;;;;;;32.03;15.70;;;;;;;15.26;65.40;99987.63;124312;1099;104223;-75
2023/10/22 03:26:08;;;;;;;34.90;15.65;;;;;;;15.27;65.26;99991.19;124660;1099;104210;-76
2023/10/22 03:28:40;;;;;;;36.50;17.33;;;;;;;15.27;65.66;99989.42;124951;1099;104190;-75
2023/10/22 03:31:12;;;;;;;37.70;16.50;;;;;;;15.31;64.98;99981.52;124846;1099;104159;-75
2023/10/22 03:33:43;;;;;;;37.83;17.50;;;;;;;15.30;65.69;99985.02;124826;1099;102816;-75
2023/10/22 03:36:15;;;;;;;38.27;16.83;;;;;;;15.30;65.37;99991.18;124509;1099;104185;-75
2023/10/22 03:38:46;;;;;;;37.60;15.60;;;;;;;15.28;65.71;100004.38;124423;1099;104239;-75
2023/10/22 03:41:18;;;;;;;35.60;15.83;;;;;;;15.30;65.69;100011.45;124410;1099;104325;-75
2023/10/22 03:43:50;;;;;;;41.93;17.30;;;;;;;15.28;65.69;100001.73;124346;1102;104169;-75
2023/10/22 03:46:21;;;;;;;37.30;16.37;;;;;;;15.29;65.29;100002.65;124661;1099;101885;-75
2023/10/22 03:48:53;;;;;;;34.87;16.37;;;;;;;15.22;65.93;99998.17;124816;1099;101993;-75
2023/10/22 03:51:24;;;;;;;39.57;17.50;;;;;;;15.10;65.28;99991.91;124971;1099;102415;-75
2023/10/22 03:53:57;;;;;;;37.00;16.50;;;;;;;15.03;65.56;99987.43;124873;1099;104191;-75
2023/10/22 03:56:29;;;;;;;36.90;17.00;;;;;;;15.02;66.13;99988.32;124837;1099;101932;-75
2023/10/22 03:59:00;;;;;;;37.63;16.10;;;;;;;15.02;65.97;99987.41;124910;1099;104338;-75
2023/10/22 04:01:31;;;;;;;34.60;16.23;;;;;;;15.03;66.04;99999.77;124898;1099;104166;-75
2023/10/22 04:04:03;;;;;;;37.17;16.47;;;;;;;15.00;65.69;99987.40;124875;1098;104061;-75
2023/10/22 04:06:34;;;;;;;36.10;16.37;;;;;;;15.00;65.60;99999.73;124795;1099;104240;-75
2023/10/22 04:09:06;;;;;;;34.33;16.73;;;;;;;15.02;65.72;100004.17;124455;1099;104223;-75
2023/10/22 04:11:37;;;;;;;35.30;16.53;;;;;;;15.04;65.24;100006.83;124870;1098;103645;-75
2023/10/22 04:14:08;;;;;;;40.20;16.43;;;;;;;15.06;65.18;100002.44;124954;1098;104265;-75
2023/10/22 04:16:40;;;;;;;38.23;17.13;;;;;;;15.07;66.01;99993.65;124882;1099;104248;-75
2023/10/22 04:19:11;;;;;;;38.50;17.40;;;;;;;15.05;65.52;100004.20;124957;1099;104245;-76
2023/10/22 04:21:42;;;;;;;38.07;17.73;;;;;;;15.06;65.72;100007.72;125053;1099;104214;-75
2023/10/22 04:24:13;;;;;;;36.10;16.47;;;;;;;15.05;66.33;100006.84;125906;1099;102413;-76
2023/10/22 04:26:45;;;;;;;37.17;17.00;;;;;;;15.07;66.62;100007.73;124965;1099;102599;-76
2023/10/22 04:29:16;;;;;;;34.50;17.27;;;;;;;15.07;66.87;100015.66;124513;1099;104069;-76
2023/10/22 04:31:47;;;;;;;37.30;17.80;;;;;;;15.08;66.00;100013.89;124537;1099;104278;-76
2023/10/22 04:34:19;;;;;;;37.60;18.13;;;;;;;15.12;66.67;100020.12;125057;1098;104201;-76
2023/10/22 04:36:50;;;;;;;37.50;17.10;;;;;;;15.13;66.95;100017.48;125012;1098;102168;-76
2023/10/22 04:39:24;;;;;;;40.30;17.20;;;;;;;15.13;67.16;100013.94;124916;1098;104284;-75
2023/10/22 04:41:54;;;;;;;;;;;;;;;15.09;66.23;100011.27;124996;1099;102528;-75
2023/10/22 04:44:25;;;;;;;35.37;16.27;;;;;;;15.06;67.08;100013.00;124880;1099;104249;-75
2023/10/22 04:46:56;;;;;;;41.07;18.80;;;;;;;15.02;66.61;100014.74;124817;1099;104191;-75
2023/10/22 04:49:30;;;;;;;41.40;17.73;;;;;;;14.99;66.41;100019.09;124449;1099;101998;-75
2023/10/22 04:52:02;;;;;;;40.27;17.83;;;;;;;15.01;66.39;100022.66;124324;1099;104384;-74
2023/10/22 04:54:33;;;;;;;38.73;19.03;;;;;;;15.03;67.00;100023.55;124358;1099;104176;-74
2023/10/22 04:57:04;;;;;;;40.30;19.10;;;;;;;15.07;66.71;100022.72;124484;1099;104179;-74
2023/10/22 04:59:36;;;;;;;41.73;18.73;;;;;;;15.08;67.49;100029.75;124881;1099;101773;-74
2023/10/22 05:02:07;;;;;;;36.13;18.87;;;;;;;15.10;66.75;100020.98;124820;1099;104192;-74
2023/10/22 05:04:39;;;;;;;42.60;18.07;;;;;;;15.12;66.73;100030.69;124287;1099;104191;-74
2023/10/22 05:07:10;;;;;;;42.47;18.50;;;;;;;15.12;67.16;100036.84;124784;1099;104295;-73
2023/10/22 05:09:41;;;;;;;36.60;17.25;;;;;;;15.13;66.59;100037.72;124770;1099;104175;-75
2023/10/22 05:12:13;;;;;;;40.07;17.23;;;;;;;15.15;66.08;100038.64;124902;1099;104207;-75
2023/10/22 05:14:44;;;;;;;38.60;16.20;;;;;;;15.19;67.17;100040.42;124875;1099;102264;-75
2023/10/22 05:17:16;;;;;;;36.33;17.10;;;;;;;15.25;66.16;100048.41;124924;1099;104204;-75
2023/10/22 05:19:50;;;;;;;34.90;16.73;;;;;;;15.30;67.00;100044.05;124357;1099;104252;-75
2023/10/22 05:22:21;;;;;;;32.80;16.27;;;;;;;15.35;66.36;100046.73;124887;1099;101948;-75
2023/10/22 05:24:52;;;;;;;38.90;17.13;;;;;;;15.40;66.16;100053.84;124846;1099;104169;-75
2023/10/22 05:27:24;;;;;;;39.67;17.60;;;;;;;15.46;66.96;100056.55;125988;1098;102470;-75
2023/10/22 05:29:55;;;;;;;38.73;17.30;;;;;;;15.52;66.65;100060.09;124936;1099;104207;-74
2023/10/22 05:32:26;;;;;;;32.47;17.10;;;;;;;15.58;66.10;100062.80;125005;1098;104195;-75
2023/10/22 05:34:59;;;;;;;39.47;17.73;;;;;;;15.61;67.00;100063.73;125127;1099;104242;-76
2023/10/22 05:37:30;;;;;;;36.90;16.77;;;;;;;15.66;67.05;100066.41;125009;1099;101961;-75
2023/10/22 05:40:01;;;;;;;35.93;17.67;;;;;;;15.73;66.10;100072.62;124959;1099;104293;-74
2023/10/22 05:42:34;;;;;;;37.37;17.50;;;;;;;15.80;66.47;100077.14;124807;1099;104172;-75
2023/10/22 05:45:06;;;;;;;46.07;17.93;;;;;;;15.83;66.97;100076.25;124823;1099;104201;-75
2023/10/22 05:47:37;;;;;;;34.70;14.83;;;;;;;15.88;66.46;100078.07;124928;1099;104210;-75
2023/10/22 05:50:11;;;;;;;37.03;16.90;;;;;;;15.93;66.84;100072.81;124909;1099;104288;-75
2023/10/22 05:52:42;;;;;;;36.13;16.35;;;;;;;16.00;66.49;100066.66;124874;1099;104398;-75
2023/10/22 05:55:14;;;;;;;37.93;17.40;;;;;;;16.05;66.55;100059.67;126026;1098;102194;-75
2023/10/22 05:57:46;;;;;;;39.40;17.00;;;;;;;16.09;65.91;100061.44;124989;1099;104169;-75
2023/10/22 06:00:18;;;;;;;37.75;15.95;;;;;;;16.14;66.15;100067.66;124786;1099;104359;-75
2023/10/22 06:02:49;;;;;;;38.70;16.23;;;;;;;16.22;66.47;100074.74;124839;1099;104191;-75
2023/10/22 06:05:21;;;;;;;34.03;15.60;;;;;;;16.27;66.26;100073.91;124716;1099;101957;-74
2023/10/22 06:07:52;;;;;;;35.10;15.07;;;;;;;16.35;66.22;100072.17;124659;1098;104233;-74
2023/10/22 06:10:27;;;;;;;37.50;15.27;;;;;;;16.41;65.79;100067.78;124706;1099;101926;-74
2023/10/22 06:12:58;;;;;;;37.20;15.13;;;;;;;16.45;66.32;100070.45;124770;1099;101929;-74
2023/10/22 06:15:30;;;;;;;39.53;16.27;;;;;;;16.50;65.65;100083.72;124745;1099;104197;-74
2023/10/22 06:18:02;;;;;;;38.13;15.97;;;;;;;16.51;65.74;100088.14;124758;1099;102482;-75
2023/10/22 06:20:34;;;;;;;34.57;15.70;;;;;;;16.54;65.76;100089.03;124784;1099;107125;-74
2023/10/22 06:23:06;;;;;;;37.60;15.50;;;;;;;16.62;65.68;100069.66;124760;1098;104268;-74
2023/10/22 06:25:38;;;;;;;35.47;13.13;;;;;;;16.70;65.59;100071.47;124653;1099;104194;-73
2023/10/22 06:28:09;;;;;;;41.27;13.00;;;;;;;16.79;65.71;100081.20;124789;1099;104166;-74
2023/10/22 06:30:41;;;;;;;34.33;13.00;;;;;;;16.89;65.75;100074.19;124713;1099;102003;-74
2023/10/22 06:33:13;;;;;;;33.30;12.47;;;;;;;16.97;64.97;100069.81;124760;1099;101840;-74
2023/10/22 06:35:44;;;;;;;31.90;12.03;;;;;;;17.06;65.57;100068.94;124788;1099;104135;-73
2023/10/22 06:38:15;;;;;;;24.87;11.73;;;;;;;17.18;65.13;100070.73;124784;1099;101871;-74
2023/10/22 06:40:46;;;;;;;29.40;11.70;;;;;;;17.28;65.12;100064.58;124759;1099;104204;-74
2023/10/22 06:43:17;;;;;;;24.77;10.67;;;;;;;17.38;64.79;100078.73;124768;1099;101925;-74
2023/10/22 06:45:49;;;;;;;29.83;11.13;;;;;;;17.48;64.43;100069.88;124311;1102;104166;-74
2023/10/22 06:48:20;;;;;;;28.10;10.87;;;;;;;17.60;64.13;100083.14;124823;1099;102099;-75
2023/10/22 06:50:51;;;;;;;33.77;11.23;;;;;;;17.72;63.93;100068.13;124686;1099;104172;-73
2023/10/22 06:53:23;;;;;;;25.33;10.13;;;;;;;17.82;63.87;100061.91;124782;1099;101919;-74
2023/10/22 06:55:54;;;;;;;27.73;10.03;;;;;;;17.94;63.66;100056.63;124805;1098;101951;-74
2023/10/22 06:58:25;;;;;;;37.07;11.20;;;;;;;18.05;63.91;100064.58;124676;1099;104429;-74
2023/10/22 07:01:06;;;;;;;34.43;10.57;;;;;;;18.15;64.10;100078.70;124688;1099;101962;-74
2023/10/22 07:03:38;;;;;;;25.17;9.63;;;;;;;18.22;63.29;100071.64;124789;1099;104318;-74
2023/10/22 07:06:10;;;;;;;26.73;10.40;;;;;;;18.30;63.16;100064.52;124654;1099;104191;-73
2023/10/22 07:08:43;;;;;;;25.17;10.50;;;;;;;18.39;63.40;100066.28;124586;1098;103390;-73
2023/10/22 07:11:14;;;;;;;28.43;10.70;;;;;;;18.48;63.27;100060.91;124606;1099;101935;-73
2023/10/22 07:13:45;;;;;;;29.20;9.97;;;;;;;18.56;62.77;100056.47;124698;1099;104047;-74
2023/10/22 07:16:17;;;;;;;29.57;10.07;;;;;;;18.65;62.41;100072.38;124642;1099;104156;-73
2023/10/22 07:18:48;;;;;;;32.77;11.83;;;;;;;18.71;61.74;100065.25;124200;1099;104172;-73
2023/10/22 07:21:20;;;;;;;28.60;10.03;;;;;;;18.77;61.87;100057.25;124756;1099;104194;-74
2023/10/22 07:23:51;;;;;;;27.57;10.23;;;;;;;18.85;61.67;100059.02;124706;1099;102162;-74
2023/10/22 07:26:22;;;;;;;31.80;10.20;;;;;;;18.95;61.31;100058.98;124697;1099;104235;-74
2023/10/22 07:28:54;;;;;;;23.10;9.80;;;;;;;19.04;61.13;100048.26;124661;1099;104242;-74
2023/10/22 07:31:25;;;;;;;24.07;10.03;;;;;;;19.14;61.49;100051.77;124336;1099;104169;-74
2023/10/22 07:33:56;;;;;;;24.10;9.13;;;;;;;19.25;60.63;100046.38;124752;1099;104239;-75
2023/10/22 07:36:27;;;;;;;26.17;9.13;;;;;;;19.35;60.94;100048.95;124247;1099;104195;-74
2023/10/22 07:38:59;;;;;;;26.60;9.40;;;;;;;19.47;60.75;100047.09;124767;1099;102325;-75
2023/10/22 07:41:30;;;;;;;35.27;10.07;;;;;;;19.60;60.63;100045.20;124733;1099;104217;-74
2023/10/22 07:44:01;;;;;;;27.10;8.87;;;;;;;19.73;60.69;100038.89;124910;1099;104331;-75
2023/10/22 07:46:33;;;;;;;22.23;8.30;;;;;;;19.86;59.58;100032.56;124959;1099;101993;-74
2023/10/22 07:49:05;;;;;;;21.70;8.63;;;;;;;20.01;59.54;100030.67;124700;1099;101875;-74
2023/10/22 07:51:36;;;;;;;29.50;8.43;;;;;;;20.13;59.90;100027.84;124363;1099;104066;-74
2023/10/22 07:54:08;;;;;;;25.00;9.20;;;;;;;20.24;60.17;100027.72;124700;1099;104169;-75
2023/10/22 07:56:39;;;;;;;24.27;8.53;;;;;;;20.40;58.72;100023.12;124289;1099;101862;-76
2023/10/22 07:59:10;;;;;;;29.07;8.97;;;;;;;20.55;58.89;100022.02;124250;1099;104333;-75
2023/10/22 08:01:41;;;;;;;27.00;9.10;;;;;;;20.68;58.96;100020.11;124733;1099;104361;-75
2023/10/22 08:04:13;;;;;;;27.67;8.30;;;;;;;20.82;58.51;100020.82;124309;1099;104165;-75
2023/10/22 08:06:44;;;;;;;26.20;8.93;;;;;;;20.96;58.08;100016.16;124765;1099;104211;-74
2023/10/22 08:09:15;;;;;;;23.97;8.83;;;;;;;21.11;58.15;100019.50;124256;1099;104271;-75
2023/10/22 08:11:46;;;;;;;24.63;8.87;;;;;;;21.23;57.77;100015.77;124236;1099;104336;-74
2023/10/22 08:14:18;;;;;;;26.30;9.20;;;;;;;21.36;57.90;100011.98;124405;1099;102087;-75
2023/10/22 08:16:49;;;;;;;25.07;8.90;;;;;;;21.47;57.89;100019.81;124451;1099;102255;-76
2023/10/22 08:19:21;;;;;;;27.73;9.10;;;;;;;21.61;56.71;100014.27;124536;1099;104175;-76
2023/10/22 08:21:53;;;;;;;25.00;9.03;;;;;;;21.73;56.88;100014.92;124480;1099;104172;-77
2023/10/22 08:24:24;;;;;;;27.03;9.40;;;;;;;21.83;56.19;100004.98;124532;1099;102078;-76
2023/10/22 08:26:55;;;;;;;25.50;10.67;;;;;;;21.94;56.28;100006.55;124248;1099;101843;-74
2023/10/22 08:29:27;;;;;;;30.53;10.77;;;;;;;22.03;56.35;100001.94;124719;1099;104066;-74
2023/10/22 08:31:58;;;;;;;27.53;10.43;;;;;;;22.16;55.72;100012.35;124492;1099;104198;-75
2023/10/22 08:34:29;;;;;;;25.53;10.20;;;;;;;22.29;55.75;100003.19;124704;1099;101916;-75
2023/10/22 08:37:01;;;;;;;30.33;10.20;;;;;;;22.40;55.46;100001.20;124721;1099;101929;-74
2023/10/22 08:39:33;;;;;;;29.13;9.83;;;;;;;22.52;55.59;100001.88;124800;1099;104153;-75
2023/10/22 08:42:16;;;;;;;24.65;9.95;;;;;;;22.63;54.87;100007.86;124579;1099;104227;-75
2023/10/22 08:44:49;;;;;;;26.53;10.33;;;;;;;22.74;54.95;100002.28;124415;1099;104262;-76
2023/10/22 08:47:21;;;;;;;24.87;9.73;;;;;;;22.87;54.78;99994.85;124749;1099;101826;-75
2023/10/22 08:50:13;;;;;;;25.00;9.20;;;;;;;22.98;54.46;99985.67;124372;1099;104175;-76
2023/10/22 08:52:47;;;;;;;26.40;9.60;;;;;;;23.14;54.00;99979.99;124660;1099;104224;-74
2023/10/22 08:55:19;;;;;;;25.23;8.77;;;;;;;23.28;54.03;99985.87;124293;1099;101894;-75
2023/10/22 08:57:50;;;;;;;25.63;9.13;;;;;;;23.41;53.80;99985.57;124791;1099;104268;-75
2023/10/22 09:00:26;;;;;;;28.77;9.20;;;;;;;23.51;53.09;99979.04;124291;1099;104223;-75
2023/10/22 09:02:57;;;;;;;28.27;9.33;;;;;;;23.64;52.89;99972.45;124353;1099;104163;-76
2023/10/22 09:05:29;;;;;;;22.47;8.47;;;;;;;23.78;52.69;99977.45;125074;1102;101908;-76
2023/10/22 09:08:00;;;;;;;25.07;8.83;;;;;;;23.93;51.90;99978.84;124809;1099;104273;-76
2023/10/22 09:10:36;;;;;;;25.87;8.57;;;;;;;24.07;52.26;99977.59;124698;1099;104177;-75
2023/10/22 09:13:16;;;;;;;26.90;9.13;;;;;;;24.23;52.20;99969.06;124755;1098;104249;-75
2023/10/22 09:15:48;;;;;;;23.50;8.20;;;;;;;24.37;50.98;99965.98;124861;1099;102124;-75
2023/10/22 09:18:20;;;;;;;26.90;6.60;;;;;;;24.52;50.62;99955.70;124973;1099;102544;-75
2023/10/22 09:20:51;;;;;;;20.47;5.97;;;;;;;24.78;50.02;99954.03;125008;1099;104175;-76
2023/10/22 09:23:23;;;;;;;22.10;5.57;;;;;;;25.05;47.74;99952.28;124992;1099;102264;-75
2023/10/22 09:25:56;;;;;;;21.80;5.40;;;;;;;25.29;47.96;99947.92;125371;1099;104169;-76
2023/10/22 09:28:28;;;;;;;18.02;5.22;;;;;;;25.48;47.41;99934.77;124695;1099;104168;-75
2023/10/22 09:31:01;;;;;;;20.90;5.53;;;;;;;25.63;47.06;99936.91;124607;1099;104242;-75
2023/10/22 09:33:37;;;;;;;16.10;5.30;;;;;;;25.77;44.83;99932.83;124657;1099;104205;-74
2023/10/22 09:36:11;;;;;;;17.77;4.90;;;;;;;26.00;45.24;99918.59;124721;1099;104213;-74
2023/10/22 09:38:44;;;;;;;19.20;5.77;;;;;;;26.16;45.38;99922.47;124780;1099;104169;-74
2023/10/22 09:41:26;;;;;;;16.97;5.15;;;;;;;26.30;45.29;99918.35;124720;1099;104166;-75
2023/10/22 09:43:59;;;;;;;16.47;4.93;;;;;;;26.45;44.55;99909.69;124701;1099;104019;-76
2023/10/22 09:46:33;;;;;;;18.62;5.47;;;;;;;26.53;44.20;99894.11;124710;1099;104267;-75
2023/10/22 09:49:06;;;;;;;18.43;4.70;;;;;;;26.75;43.04;99897.80;124680;1099;102044;-76
2023/10/22 09:51:37;;;;;;;;;;;;;;;26.96;43.30;99896.02;124729;1099;104245;-76
2023/10/22 09:54:09;;;;;;;16.13;5.13;;;;;;;27.07;41.85;99885.70;124662;1099;104163;-76
2023/10/22 09:56:52;;;;;;;13.40;4.50;;;;;;;27.16;42.34;99876.33;124585;1098;104050;-76
2023/10/22 09:59:24;;;;;;;14.17;4.73;;;;;;;27.28;41.51;99872.24;124625;1099;104166;-75
2023/10/22 10:01:56;;;;;;;13.70;4.67;;;;;;;27.39;40.32;99873.54;124703;1099;104156;-75
2023/10/22 10:04:32;;;;;;;18.40;4.95;;;;;;;27.53;40.53;99878.32;124625;1099;104168;-75
2023/10/22 10:07:05;;;;;;;16.30;4.50;;;;;;;27.64;39.61;99863.50;124693;1099;101967;-74
2023/10/22 10:09:38;;;;;;;19.07;4.72;;;;;;;27.75;39.74;99862.08;124730;1099;104269;-76
2023/10/22 10:12:12;;;;;;;17.40;4.70;;;;;;;27.90;39.32;99865.02;124914;1099;104182;-77
2023/10/22 10:14:48;;;;;;;12.90;3.70;;;;;;;27.96;38.66;99865.63;125004;1099;101829;-76
2023/10/22 10:17:20;;;;;;;15.73;3.80;;;;;;;28.08;38.06;99874.98;124759;1098;101836;-75
2023/10/22 10:19:52;;;;;;;10.65;3.67;;;;;;;28.19;37.55;99882.56;124727;1099;104216;-75
2023/10/22 10:22:44;;;;;;;18.57;4.83;;;;;;;28.25;36.99;99866.09;124602;1099;104229;-74
2023/10/22 10:25:31;;;;;;;14.37;3.90;;;;;;;28.29;36.50;99872.20;125906;1098;102415;-74
2023/10/22 10:28:08;;;;;;;14.67;4.37;;;;;;;28.33;36.31;99869.28;124628;1099;104271;-75
2023/10/22 10:30:40;;;;;;;13.07;4.10;;;;;;;28.36;36.21;99864.68;124613;1099;104242;-74
2023/10/22 10:33:14;;;;;;;12.07;3.67;;;;;;;28.38;36.37;99870.90;124630;1098;102000;-74
2023/10/22 10:35:47;;;;;;;16.20;4.00;;;;;;;28.37;36.68;99852.95;124594;1099;107107;-74
2023/10/22 10:38:23;;;;;;;16.65;3.95;;;;;;;28.33;35.60;99860.33;124644;1099;104063;-74
2023/10/22 10:40:56;;;;;;;14.83;4.27;;;;;;;28.21;34.49;99858.22;124566;1099;102342;-74
2023/10/22 10:43:58;;;;;;;18.70;4.05;;;;;;;28.18;35.62;99859.23;124574;1099;104275;-75
2023/10/22 10:46:31;;;;;;;12.87;4.10;;;;;;;28.20;35.06;99861.85;124313;1102;117763;-75
2023/10/22 10:49:03;;;;;;;16.00;4.20;;;;;;;28.25;34.87;99849.01;124639;1099;104236;-76
2023/10/22 10:51:35;;;;;;;19.40;4.20;;;;;;;28.29;35.07;99848.79;124720;1099;104270;-76
2023/10/22 10:54:19;;;;;;;15.83;4.47;;;;;;;28.29;34.86;99851.48;124659;1099;101831;-74
2023/10/22 10:56:54;;;;;;;17.10;4.03;;;;;;;28.29;34.80;99851.48;124653;1099;104284;-75
2023/10/22 10:59:35;;;;;;;13.95;4.10;;;;;;;28.29;34.35;99856.87;124733;1099;101946;-75
2023/10/22 11:02:12;;;;;;;13.87;3.97;;;;;;;28.31;34.32;99849.61;124227;1099;104230;-75
2023/10/22 11:04:49;;;;;;;16.90;4.00;;;;;;;28.26;33.71;99851.63;124743;1099;102087;-76
2023/10/22 11:07:24;;;;;;;15.80;3.53;;;;;;;28.23;33.74;99857.17;124788;1099;104245;-75
2023/10/22 11:09:56;;;;;;;12.00;3.77;;;;;;;28.23;33.56;99857.17;124673;1099;102934;-74
2023/10/22 11:12:28;;;;;;;15.10;3.70;;;;;;;28.24;33.53;99849.98;124615;1099;104163;-74
2023/10/22 11:15:00;;;;;;;14.47;3.63;;;;;;;28.26;33.67;99851.63;124646;1099;102917;-74
2023/10/22 11:17:31;;;;;;;14.87;3.90;;;;;;;28.30;33.22;99853.25;124702;1099;104165;-74
2023/10/22 11:20:04;;;;;;;15.10;4.00;;;;;;;28.36;32.87;99857.48;124695;1099;102354;-74
2023/10/22 11:22:36;;;;;;;11.68;3.83;;;;;;;28.44;33.25;99852.58;124648;1099;104335;-73